EHAM/AMS METAR and TAF weather

Enter ICAO airport designator
Station Type Date Time Source
EHAM METAR 2018/09/21 23:55 UTC NOAA

EHAM 212355Z 27017KT 9999 VCSH FEW028CB 13/08 Q1014 TEMPO 27025G35KT 6000 SHRA


Station Type Date Time Source
EHAM Decoded METAR 2018/09/21 23:55 UTC NOAA

Amsterdam Airport Schiphol, Netherlands (EHAM) 52-18N 004-46E -2M
Sep 21, 2018 - 07:55 PM EDT / 2018.09.21 2355 UTC
Wind: from the W (270 degrees) at 20 MPH (17 KT):0
Visibility: greater than 7 mile(s):0
Sky conditions: mostly clear
Weather: showers in the vicinity; Cumulonimbus clouds observed
Temperature: 55 F (13 C)
Dew Point: 46 F (8 C)
Relative Humidity: 71%
Pressure (altimeter): 29.94 in. Hg (1014 hPa)
ob: EHAM 212355Z 27017KT 9999 VCSH FEW028CB 13/08 Q1014 TEMPO 27025G35KT 6000 SHRA
cycle: 0

Station Type Date Time Source
EHAM TAF 2018/09/21 18:28 UTC NOAA

TAF EHAM 211718Z 2118/2224 24022G32KT 9999 SCT040TCU
TEMPO 2118/2204 6000 SHRA SCT022CB BKN030 PROB30
TEMPO 2118/2121 26027G42KT 4000 TSRAGS
BECMG 2119/2122 27018G28KT SCT035
BECMG 2123/2202 26014KT
BECMG 2208/2211 26015G25KT
BECMG 2217/2220 20006KT


Example: see airport list